Time;durP1;ratioP1;P1;durP2;ratioP2;P2;SDS_P1;SDS_P2;PMS_P1;PMS_P2;Temp;Humidity;BMP_temperature;BMP_pressure;BME280_temperature;BME280_humidity;BME280_pressure;Samples;Min_cycle;Max_cycle;Signal;HPM_P1;HPM_P2
2022/03/01 00:00:11;;;;;;;33.75;19.77;;;;;;;2.04;72.43;101869.11;1758231;80;20880;-71
2022/03/01 00:02:43;;;;;;;29.65;20.82;;;;;;;2.10;72.27;101870.83;1758280;81;21684;-74
2022/03/01 00:05:10;;;;;;;34.70;19.73;;;;;;;2.14;72.18;101871.25;1758275;81;21520;-72
2022/03/01 00:07:37;;;;;;;31.35;19.07;;;;;;;2.17;72.00;101869.92;1758248;81;20841;-74
2022/03/01 00:10:06;;;;;;;32.20;18.05;;;;;;;2.22;71.84;101877.25;1758332;80;20967;-73
2022/03/01 00:12:33;;;;;;;29.27;18.48;;;;;;;2.20;71.72;101876.40;1758237;81;20940;-73
2022/03/01 00:14:59;;;;;;;29.00;19.45;;;;;;;2.19;71.70;101869.48;1758363;81;21318;-73
2022/03/01 00:17:26;;;;;;;27.15;17.48;;;;;;;2.18;71.97;101866.48;1758204;80;21096;-72
2022/03/01 00:19:52;;;;;;;32.48;18.92;;;;;;;2.24;71.97;101879.38;1758374;80;21417;-73
2022/03/01 00:22:19;;;;;;;27.15;17.98;;;;;;;2.27;72.00;101878.52;1758434;81;21034;-74
2022/03/01 00:24:47;;;;;;;28.02;19.12;;;;;;;2.31;71.94;101885.38;1758168;81;20920;-73
2022/03/01 00:27:14;;;;;;;29.57;18.60;;;;;;;2.32;71.88;101889.70;1758308;80;21509;-72
2022/03/01 00:29:40;;;;;;;27.10;18.65;;;;;;;2.36;71.70;101882.80;1758468;80;21107;-72
2022/03/01 00:32:09;;;;;;;31.42;19.37;;;;;;;2.39;71.53;101884.91;1758266;81;20904;-73
2022/03/01 00:34:37;;;;;;;31.35;20.00;;;;;;;2.39;71.45;101884.05;1758247;81;20931;-73
2022/03/01 00:37:04;;;;;;;30.90;20.97;;;;;;;2.36;71.34;101879.77;1758197;81;21404;-71
2022/03/01 00:39:31;;;;;;;30.70;19.30;;;;;;;2.37;71.51;101870.26;1758229;80;20888;-72
2022/03/01 00:41:59;;;;;;;28.87;19.57;;;;;;;2.40;71.55;101854.70;1758237;81;20884;-73
2022/03/01 00:44:26;;;;;;;30.95;18.73;;;;;;;2.38;71.50;101852.55;1758381;81;20884;-73
2022/03/01 00:46:52;;;;;;;32.98;20.50;;;;;;;2.31;71.55;101838.78;1752096;80;20992;-73
2022/03/01 00:49:19;;;;;;;35.17;21.35;;;;;;;2.23;71.62;101831.08;1745100;82;20912;-72
2022/03/01 00:51:45;;;;;;;28.25;17.67;;;;;;;2.17;71.78;101829.81;1745376;82;21486;-73
2022/03/01 00:54:12;;;;;;;26.97;19.30;;;;;;;2.12;71.93;101819.94;1745484;81;21498;-73
2022/03/01 00:56:38;;;;;;;28.77;18.92;;;;;;;2.03;72.10;101820.84;1745047;81;20885;-73
2022/03/01 00:59:05;;;;;;;29.77;19.42;;;;;;;1.96;72.28;101816.58;1744932;81;21410;-73
2022/03/01 01:01:32;;;;;;;35.38;20.85;;;;;;;1.95;72.48;101826.92;1744913;81;21327;-74
2022/03/01 01:03:59;;;;;;;31.82;19.77;;;;;;;1.94;72.50;101827.80;1744603;82;20841;-73
2022/03/01 01:06:25;;;;;;;30.05;19.42;;;;;;;1.95;72.75;101821.30;1744919;81;21098;-71
2022/03/01 01:08:52;;;;;;;33.18;19.55;;;;;;;1.98;72.98;101813.95;1744823;81;20885;-72
2022/03/01 01:11:18;;;;;;;33.35;20.77;;;;;;;2.00;73.06;101814.41;1744587;81;21386;-73
2022/03/01 01:13:46;;;;;;;33.20;21.20;;;;;;;2.01;73.10;101807.49;1744527;81;20952;-72
2022/03/01 01:16:13;;;;;;;31.97;20.35;;;;;;;2.00;73.20;101805.34;1744707;82;20932;-73
2022/03/01 01:18:43;;;;;;;33.48;20.70;;;;;;;1.98;73.28;101802.31;1744651;81;21691;-73
2022/03/01 01:21:11;;;;;;;34.67;21.10;;;;;;;1.94;73.48;101804.52;1744469;81;20921;-72
2022/03/01 01:23:38;;;;;;;34.95;21.60;;;;;;;1.92;73.68;101794.61;1744665;82;20888;-72
2022/03/01 01:26:05;;;;;;;33.10;20.50;;;;;;;1.90;73.90;101788.59;1744898;81;20976;-72
2022/03/01 01:28:31;;;;;;;33.40;21.97;;;;;;;1.93;73.96;101780.36;1734142;82;20869;-72
2022/03/01 01:30:58;;;;;;;39.48;22.48;;;;;;;1.94;74.03;101769.16;1745025;81;21097;-73
2022/03/01 01:33:24;;;;;;;35.68;20.08;;;;;;;1.97;74.21;101756.20;1744626;81;20838;-72
2022/03/01 01:35:51;;;;;;;32.78;20.35;;;;;;;2.03;74.26;101750.99;1744921;81;20940;-72
2022/03/01 01:38:17;;;;;;;37.50;22.30;;;;;;;2.04;74.24;101746.23;1744606;81;21435;-73
2022/03/01 01:40:44;;;;;;;34.80;20.97;;;;;;;2.05;74.24;101740.20;1744700;81;20979;-72
2022/03/01 01:43:12;;;;;;;34.50;20.95;;;;;;;2.02;74.18;101747.11;1744601;81;21091;-72
2022/03/01 01:45:38;;;;;;;38.95;21.42;;;;;;;1.97;74.26;101748.44;1744926;81;20846;-72
2022/03/01 01:48:05;;;;;;;37.55;21.75;;;;;;;1.92;74.51;101750.20;1755889;81;20919;-72
2022/03/01 01:50:33;;;;;;;35.73;20.65;;;;;;;1.88;74.75;101751.08;1758497;80;20960;-73
2022/03/01 01:52:59;;;;;;;39.45;22.82;;;;;;;1.85;74.72;101750.67;1758026;81;20924;-73
2022/03/01 01:55:26;;;;;;;35.05;21.30;;;;;;;1.81;74.78;101751.99;1757936;81;21477;-72
2022/03/01 01:57:53;;;;;;;39.90;23.02;;;;;;;1.75;75.12;101758.04;1757794;81;20967;-73
2022/03/01 02:00:20;;;;;;;33.48;21.12;;;;;;;1.68;75.34;101752.48;1757950;80;20892;-72
2022/03/01 02:02:47;;;;;;;36.68;21.02;;;;;;;1.68;75.66;101751.63;1757854;81;20896;-72
2022/03/01 02:05:13;;;;;;;35.75;22.02;;;;;;;1.68;75.85;101758.94;1757920;81;21393;-73
2022/03/01 02:07:48;;;;;;;37.17;21.97;;;;;;;1.69;76.13;101758.09;1757926;81;21134;-72
2022/03/01 02:10:16;;;;;;;40.90;22.80;;;;;;;1.74;76.17;101748.58;1757804;81;20971;-72
2022/03/01 02:12:44;;;;;;;39.45;22.65;;;;;;;1.73;76.00;101745.55;1757960;81;21453;-72
2022/03/01 02:15:11;;;;;;;49.60;24.10;;;;;;;1.71;76.32;101734.80;1757818;81;21373;-73
2022/03/01 02:17:40;;;;;;;38.88;22.52;;;;;;;1.71;76.35;101734.80;1757884;80;21019;-73
2022/03/01 02:20:19;;;;;;;43.13;23.05;;;;;;;1.70;76.41;101733.09;1758118;80;21735;-72
2022/03/01 02:22:47;;;;;;;41.40;22.10;;;;;;;1.68;76.48;101727.06;1757887;80;20896;-72
2022/03/01 02:25:13;;;;;;;38.23;20.60;;;;;;;1.69;76.83;101721.02;1757844;81;20979;-72
2022/03/01 02:27:40;;;;;;;37.30;22.10;;;;;;;1.72;76.91;101726.19;1757796;81;21358;-72
2022/03/01 02:30:09;;;;;;;43.78;22.90;;;;;;;1.76;76.98;101730.48;1758153;81;20869;-71
2022/03/01 02:32:40;;;;;;;38.65;21.52;;;;;;;1.78;76.86;101726.13;1758009;81;21179;-72
2022/03/01 02:35:08;;;;;;;40.12;21.85;;;;;;;1.79;76.92;101720.10;1758009;81;21350;-73
2022/03/01 02:37:35;;;;;;;32.42;20.35;;;;;;;1.81;77.03;101714.05;1757842;81;20935;-74
2022/03/01 02:40:05;;;;;;;34.92;20.10;;;;;;;1.83;77.00;101709.73;1757808;80;20947;-72
2022/03/01 02:42:32;;;;;;;37.50;21.27;;;;;;;1.84;76.95;101711.43;1758030;81;20944;-72
2022/03/01 02:44:58;;;;;;;43.70;23.10;;;;;;;1.85;76.94;101705.85;1758278;81;22100;-73
2022/03/01 02:47:25;;;;;;;37.17;21.60;;;;;;;1.83;77.02;101711.46;1757679;81;20968;-72
2022/03/01 02:49:52;;;;;;;38.90;22.90;;;;;;;1.83;77.14;101708.88;1757914;81;20984;-72
2022/03/01 02:52:18;;;;;;;35.88;21.02;;;;;;;1.85;77.09;101703.27;1757796;81;21350;-72
2022/03/01 02:54:45;;;;;;;31.33;20.20;;;;;;;1.85;77.18;101704.55;1757866;81;20888;-72
2022/03/01 02:57:12;;;;;;;33.75;20.12;;;;;;;1.84;77.13;101700.23;1757903;81;21129;-73
2022/03/01 02:59:39;;;;;;;37.03;20.23;;;;;;;1.83;77.53;101695.95;1758032;81;20888;-73
2022/03/01 03:02:05;;;;;;;38.65;21.27;;;;;;;1.84;77.61;101694.63;1757935;80;21490;-73
2022/03/01 03:04:32;;;;;;;37.17;20.97;;;;;;;1.84;77.72;101680.84;1758016;81;20999;-72
2022/03/01 03:06:59;;;;;;;35.95;20.05;;;;;;;1.85;77.90;101677.40;1757914;81;20876;-73
2022/03/01 03:09:25;;;;;;;32.45;19.90;;;;;;;1.86;77.96;101681.69;1758102;81;21473;-73
2022/03/01 03:11:52;;;;;;;30.85;19.30;;;;;;;1.87;77.94;101688.59;1757727;81;21513;-71
2022/03/01 03:14:19;;;;;;;35.85;18.90;;;;;;;1.90;77.97;101688.56;1757918;81;20876;-73
2022/03/01 03:16:46;;;;;;;34.73;19.67;;;;;;;1.94;78.01;101677.77;1757813;81;20940;-72
2022/03/01 03:19:15;;;;;;;30.45;17.37;;;;;;;1.95;78.00;101679.03;1758202;81;21058;-73
2022/03/01 03:21:44;;;;;;;34.20;18.73;;;;;;;1.99;78.01;101679.44;1757831;81;21174;-73
2022/03/01 03:24:11;;;;;;;37.38;19.92;;;;;;;1.96;77.92;101671.72;1757588;80;20889;-74
2022/03/01 03:26:38;;;;;;;35.45;18.95;;;;;;;1.97;78.11;101682.91;1757891;81;20936;-73
2022/03/01 03:29:08;;;;;;;34.85;18.95;;;;;;;1.98;78.18;101693.67;1758102;81;21456;-72
2022/03/01 03:31:38;;;;;;;34.38;18.05;;;;;;;1.98;78.15;101689.79;1757823;81;20971;-73
2022/03/01 03:34:07;;;;;;;37.98;18.05;;;;;;;1.98;78.09;101693.67;1757695;81;21030;-72
2022/03/01 03:36:36;;;;;;;32.03;18.42;;;;;;;1.97;78.10;101697.14;1757852;81;21441;-73
2022/03/01 03:39:05;;;;;;;32.65;18.70;;;;;;;1.97;78.17;101703.61;1758086;81;21508;-73
2022/03/01 03:41:32;;;;;;;32.40;17.48;;;;;;;1.96;78.36;101703.20;1757795;81;20889;-71
2022/03/01 03:43:59;;;;;;;31.55;18.02;;;;;;;1.95;78.46;101704.90;1758056;81;20841;-72
2022/03/01 03:46:26;;;;;;;24.63;15.80;;;;;;;1.96;78.58;101700.61;1757790;81;21499;-72
2022/03/01 03:48:53;;;;;;;31.93;17.55;;;;;;;1.97;78.73;101707.05;1746074;81;20996;-72
2022/03/01 03:51:20;;;;;;;30.15;17.98;;;;;;;1.95;78.66;101712.66;1744520;81;20885;-73
2022/03/01 03:53:47;;;;;;;30.37;16.67;;;;;;;1.91;78.87;101709.66;1744549;82;20909;-73
2022/03/01 03:56:14;;;;;;;32.53;18.67;;;;;;;1.94;79.05;101707.52;1744487;81;20944;-73
2022/03/01 03:58:41;;;;;;;28.80;16.90;;;;;;;1.95;79.02;101707.48;1744608;81;21144;-72
2022/03/01 04:01:08;;;;;;;27.40;15.43;;;;;;;1.99;79.21;101710.48;1744673;81;20838;-71
2022/03/01 04:03:35;;;;;;;26.12;15.30;;;;;;;2.06;79.19;101710.00;1744472;82;20936;-73
2022/03/01 04:06:02;;;;;;;29.77;16.25;;;;;;;2.08;78.99;101702.65;1744774;81;21016;-73
2022/03/01 04:08:29;;;;;;;25.12;14.80;;;;;;;2.12;79.21;101707.82;1744445;82;20925;-72
2022/03/01 04:11:00;;;;;;;25.48;14.07;;;;;;;2.15;79.01;101711.23;1744553;81;21138;-73
2022/03/01 04:13:27;;;;;;;31.20;17.27;;;;;;;2.14;78.74;101718.58;1744426;81;20968;-72
2022/03/01 04:15:53;;;;;;;31.65;17.85;;;;;;;2.08;78.80;101723.79;1744824;80;20972;-73
2022/03/01 04:18:20;;;;;;;28.57;15.95;;;;;;;2.08;78.85;101724.64;1744512;81;20932;-74
2022/03/01 04:20:47;;;;;;;29.92;17.32;;;;;;;2.06;78.83;101725.09;1744505;81;20936;-73
2022/03/01 04:23:16;;;;;;;31.87;16.77;;;;;;;2.06;78.94;101724.23;1744542;81;20940;-72
2022/03/01 04:25:43;;;;;;;29.80;17.00;;;;;;;2.08;78.96;101728.52;1744341;81;20984;-73
2022/03/01 04:28:10;;;;;;;25.68;14.83;;;;;;;2.11;78.92;101731.52;1744399;82;20977;-73
2022/03/01 04:30:36;;;;;;;27.15;14.33;;;;;;;2.11;78.87;101730.67;1744517;81;20897;-73
2022/03/01 04:33:04;;;;;;;28.90;17.05;;;;;;;2.11;78.89;101726.34;1744475;80;21446;-74
2022/03/01 04:35:30;;;;;;;24.75;13.40;;;;;;;2.12;78.98;101724.20;1744707;81;21834;-74
2022/03/01 04:37:58;;;;;;;25.75;14.58;;;;;;;2.19;79.15;101722.42;1744615;82;20870;-74
2022/03/01 04:40:24;;;;;;;29.67;15.70;;;;;;;2.21;78.93;101725.42;1744545;81;20992;-73
2022/03/01 04:42:51;;;;;;;24.87;14.47;;;;;;;2.22;78.88;101724.57;1744688;81;20874;-73
2022/03/01 04:45:17;;;;;;;25.77;14.47;;;;;;;2.24;78.66;101733.59;1744622;81;20929;-73
2022/03/01 04:47:44;;;;;;;26.70;15.38;;;;;;;2.18;78.59;101726.75;1744756;81;21174;-73
2022/03/01 04:50:11;;;;;;;25.80;14.38;;;;;;;2.17;78.73;101725.45;1744630;82;20924;-73
2022/03/01 04:52:38;;;;;;;30.10;15.68;;;;;;;2.18;78.86;101724.16;1744628;81;20925;-72
2022/03/01 04:55:07;;;;;;;33.18;16.73;;;;;;;2.23;78.85;101723.69;1744626;81;20991;-74
2022/03/01 04:57:34;;;;;;;26.12;16.85;;;;;;;2.27;78.69;101727.12;1744951;82;20980;-73
2022/03/01 05:00:01;;;;;;;23.98;14.35;;;;;;;2.30;78.55;101730.96;1744584;81;21601;-73
2022/03/01 05:02:28;;;;;;;27.98;14.20;;;;;;;2.27;78.38;101728.41;1744560;81;20929;-74
2022/03/01 05:04:54;;;;;;;24.67;14.23;;;;;;;2.23;78.44;101731.45;1744615;81;20964;-72
2022/03/01 05:07:22;;;;;;;29.82;15.93;;;;;;;2.20;78.50;101731.48;1744543;81;21023;-74
2022/03/01 05:09:49;;;;;;;24.57;14.05;;;;;;;2.18;78.60;101734.92;1744561;81;21386;-74
2022/03/01 05:12:17;;;;;;;21.93;13.53;;;;;;;2.21;78.82;101741.39;1745020;81;21072;-73
2022/03/01 05:14:44;;;;;;;24.40;12.35;;;;;;;2.18;78.61;101738.39;1744917;81;20951;-74
2022/03/01 05:17:11;;;;;;;21.48;12.78;;;;;;;2.17;78.69;101743.13;1744579;81;20948;-75
2022/03/01 05:19:38;;;;;;;21.02;12.75;;;;;;;2.17;78.63;101741.84;1744535;81;20952;-75
2022/03/01 05:22:06;;;;;;;20.95;12.33;;;;;;;2.17;78.68;101743.13;1744833;80;20913;-75
2022/03/01 05:24:33;;;;;;;18.75;11.93;;;;;;;2.16;78.66;101745.75;1744583;81;21995;-74
2022/03/01 05:27:00;;;;;;;21.20;12.53;;;;;;;2.17;78.65;101740.98;1744703;81;20892;-74
2022/03/01 05:29:27;;;;;;;19.62;12.13;;;;;;;2.17;78.45;101740.98;1744511;81;20929;-74
2022/03/01 05:31:53;;;;;;;17.32;11.53;;;;;;;2.18;78.24;101735.80;1744590;81;20909;-74
2022/03/01 05:34:20;;;;;;;17.37;10.18;;;;;;;2.19;78.12;101734.07;1744652;81;20873;-74
2022/03/01 05:36:47;;;;;;;16.60;11.15;;;;;;;2.20;77.99;101729.30;1744494;81;21552;-74
2022/03/01 05:39:14;;;;;;;20.30;9.73;;;;;;;2.22;77.77;101734.92;1744586;82;20826;-74
2022/03/01 05:41:41;;;;;;;14.80;9.20;;;;;;;2.23;77.76;101737.92;1744617;82;20888;-74
2022/03/01 05:44:07;;;;;;;18.10;10.35;;;;;;;2.26;77.62;101731.41;1744576;81;21443;-74
2022/03/01 05:46:34;;;;;;;18.35;10.13;;;;;;;2.27;77.43;101738.32;1744649;81;20858;-73
2022/03/01 05:49:01;;;;;;;15.08;9.30;;;;;;;2.30;77.28;101731.41;1728566;80;21580;-73
2022/03/01 05:51:28;;;;;;;15.72;9.85;;;;;;;2.30;77.28;101734.00;1718388;83;21398;-75
2022/03/01 05:53:55;;;;;;;17.35;9.80;;;;;;;2.28;77.20;101732.27;1718468;83;21425;-74
2022/03/01 05:56:22;;;;;;;16.90;11.18;;;;;;;2.30;77.16;101730.11;1718511;83;21501;-75
2022/03/01 05:58:49;;;;;;;19.65;10.93;;;;;;;2.27;77.20;101736.17;1718527;82;20916;-73
2022/03/01 06:01:16;;;;;;;20.27;11.38;;;;;;;2.25;77.36;101732.73;1718788;83;21103;-74
2022/03/01 06:03:42;;;;;;;19.75;12.05;;;;;;;2.26;77.42;101730.12;1718380;83;21006;-74
2022/03/01 06:06:09;;;;;;;20.65;10.78;;;;;;;2.28;77.43;101732.70;1718491;82;21350;-76
2022/03/01 06:08:37;;;;;;;18.02;11.22;;;;;;;2.34;77.48;101734.40;1718476;83;21382;-74
2022/03/01 06:11:04;;;;;;;20.88;11.25;;;;;;;2.38;77.41;101736.06;1718729;83;20940;-74
2022/03/01 06:13:31;;;;;;;17.55;11.43;;;;;;;2.39;77.40;101730.89;1718409;83;21486;-74
2022/03/01 06:16:04;;;;;;;17.75;10.98;;;;;;;2.39;77.41;101729.59;1718462;82;20888;-73
2022/03/01 06:18:28;;;;;;;18.35;10.98;;;;;;;2.38;77.54;101721.83;1718272;83;20860;-73
2022/03/01 06:20:55;;;;;;;15.85;10.00;;;;;;;2.37;77.72;101727.45;1656581;85;20969;-74
2022/03/01 06:23:21;;;;;;;19.10;12.63;;;;;;;2.39;77.83;101724.41;1659664;86;20885;-73
2022/03/01 06:25:48;;;;;;;15.95;10.72;;;;;;;2.40;77.90;101736.50;1718503;83;22137;-75
2022/03/01 06:28:15;;;;;;;17.52;11.53;;;;;;;2.45;77.96;101737.76;1718329;82;20975;-73
2022/03/01 06:30:41;;;;;;;19.27;11.08;;;;;;;2.44;78.07;101736.02;1718518;83;21341;-75
2022/03/01 06:33:08;;;;;;;19.87;11.05;;;;;;;2.44;78.03;101735.58;1718741;83;20939;-73
2022/03/01 06:35:34;;;;;;;20.12;12.00;;;;;;;2.44;78.04;101736.02;1718555;83;20915;-73
2022/03/01 06:38:03;;;;;;;19.65;11.80;;;;;;;2.43;78.16;101731.73;1718496;83;21486;-74
2022/03/01 06:40:30;;;;;;;21.45;13.20;;;;;;;2.47;78.31;101743.34;1718502;82;20856;-77
2022/03/01 06:42:57;;;;;;;18.42;11.30;;;;;;;2.49;78.16;101741.60;1718787;83;20907;-74
2022/03/01 06:45:24;;;;;;;17.65;10.58;;;;;;;2.51;78.12;101730.36;1718468;83;20994;-74
2022/03/01 06:47:51;;;;;;;17.60;10.75;;;;;;;2.49;78.02;101740.75;1718554;83;20884;-74
2022/03/01 06:50:18;;;;;;;16.17;11.40;;;;;;;2.43;78.06;101739.05;1752488;81;21402;-74
2022/03/01 06:52:44;;;;;;;16.85;10.53;;;;;;;2.44;78.37;101747.67;1752615;82;20940;-74
2022/03/01 06:55:11;;;;;;;16.77;11.35;;;;;;;2.47;78.47;101745.08;1752465;82;20873;-72
2022/03/01 06:57:40;;;;;;;16.37;10.00;;;;;;;2.52;78.42;101747.63;1752500;82;20901;-74
2022/03/01 07:00:10;;;;;;;18.82;11.50;;;;;;;2.56;78.42;101742.85;1752599;81;20940;-75
2022/03/01 07:02:40;;;;;;;17.48;10.90;;;;;;;2.57;78.40;101740.67;1752474;80;21153;-74
2022/03/01 07:05:13;;;;;;;16.57;10.08;;;;;;;2.61;78.35;101740.62;1752759;81;21025;-74
2022/03/01 07:07:40;;;;;;;16.82;11.43;;;;;;;2.64;78.20;101742.33;1752738;81;20881;-74
2022/03/01 07:10:11;;;;;;;18.65;11.22;;;;;;;2.68;78.14;101744.02;1752498;81;20941;-74
2022/03/01 07:12:39;;;;;;;17.48;10.88;;;;;;;2.72;78.01;101730.17;1752463;80;20935;-75
2022/03/01 07:15:07;;;;;;;16.73;12.20;;;;;;;2.81;77.76;101743.03;1752696;81;21117;-73
2022/03/01 07:17:35;;;;;;;17.10;9.68;;;;;;;2.86;77.63;101730.03;1752350;82;20991;-75
2022/03/01 07:20:03;;;;;;;15.80;9.80;;;;;;;2.89;77.35;101728.28;1752868;81;20849;-75
2022/03/01 07:22:30;;;;;;;19.30;10.78;;;;;;;2.89;77.06;101726.10;1752421;80;20909;-75
2022/03/01 07:24:57;;;;;;;13.50;9.20;;;;;;;2.88;77.04;101724.40;1752838;80;20893;-73
2022/03/01 07:27:23;;;;;;;16.40;10.15;;;;;;;2.90;76.88;101727.39;1752356;81;21574;-76
2022/03/01 07:29:50;;;;;;;15.60;10.08;;;;;;;2.92;76.63;101722.20;1779225;80;21378;-74
2022/03/01 07:32:16;;;;;;;14.75;9.43;;;;;;;2.90;76.43;101722.20;1786683;80;20911;-75
2022/03/01 07:34:43;;;;;;;15.28;10.55;;;;;;;2.91;76.57;101720.47;1786800;79;21026;-75
2022/03/01 07:37:10;;;;;;;13.10;8.95;;;;;;;2.97;76.41;101719.56;1786506;79;21305;-74
2022/03/01 07:39:36;;;;;;;12.25;8.75;;;;;;;3.00;76.21;101723.40;1786787;80;21098;-76
2022/03/01 07:42:05;;;;;;;12.93;8.03;;;;;;;3.01;75.94;101723.39;1786455;80;20935;-74
2022/03/01 07:44:36;;;;;;;15.43;8.50;;;;;;;3.03;75.60;101729.42;1786527;80;20933;-75
2022/03/01 07:47:01;;;;;;;12.23;8.78;;;;;;;3.06;75.32;101720.75;1786013;80;20931;-74
2022/03/01 07:49:29;;;;;;;10.60;7.72;;;;;;;3.03;75.08;101721.64;1786415;80;20926;-76
2022/03/01 07:51:56;;;;;;;12.45;8.30;;;;;;;3.00;75.01;101716.52;1786578;80;21298;-75
2022/03/01 07:54:23;;;;;;;12.90;8.98;;;;;;;3.02;75.07;101721.66;1786469;80;20958;-74
2022/03/01 07:56:49;;;;;;;11.03;8.18;;;;;;;3.03;74.73;101724.23;1786403;79;20880;-74
2022/03/01 07:59:16;;;;;;;13.00;8.73;;;;;;;3.00;74.75;101715.22;1786484;80;20919;-74
2022/03/01 08:01:42;;;;;;;14.75;8.53;;;;;;;3.00;74.74;101711.74;1786729;79;21435;-75
2022/03/01 08:04:09;;;;;;;14.50;8.18;;;;;;;3.00;74.61;101712.63;1786504;80;21129;-74
2022/03/01 08:06:36;;;;;;;11.43;6.87;;;;;;;3.01;74.72;101711.73;1786659;80;20923;-75
2022/03/01 08:09:02;;;;;;;11.45;7.97;;;;;;;3.02;74.43;101718.62;1786629;80;20900;-75
2022/03/01 08:11:29;;;;;;;10.30;6.80;;;;;;;3.01;74.52;101714.33;1786811;80;21515;-75
2022/03/01 08:13:57;;;;;;;14.18;8.08;;;;;;;3.01;74.12;101714.77;1786715;80;21383;-75
2022/03/01 08:16:24;;;;;;;13.58;7.40;;;;;;;2.96;74.27;101721.72;1786648;80;21084;-75
2022/03/01 08:18:50;;;;;;;10.28;7.55;;;;;;;2.93;74.34;101715.28;1786539;79;20995;-74
2022/03/01 08:21:17;;;;;;;11.45;7.92;;;;;;;2.92;74.34;101719.61;1786949;80;20904;-76
2022/03/01 08:23:44;;;;;;;12.73;7.10;;;;;;;2.96;73.98;101710.05;1786522;80;20974;-74
2022/03/01 08:26:10;;;;;;;11.22;8.35;;;;;;;2.96;73.90;101716.53;1787147;79;20864;-74
2022/03/01 08:28:37;;;;;;;9.60;7.25;;;;;;;2.97;73.78;101716.97;1786573;79;21496;-76
2022/03/01 08:31:04;;;;;;;12.73;8.15;;;;;;;2.98;73.88;101725.15;1786803;80;21495;-75
2022/03/01 08:33:32;;;;;;;12.93;8.78;;;;;;;2.94;73.69;101713.98;1786685;80;20867;-76
2022/03/01 08:35:59;;;;;;;11.97;8.40;;;;;;;2.93;73.87;101717.87;1786833;80;20852;-75
2022/03/01 08:38:26;;;;;;;12.33;7.92;;;;;;;2.92;73.93;101719.61;1786560;79;20971;-75
2022/03/01 08:40:53;;;;;;;10.95;8.25;;;;;;;2.93;74.20;101711.39;1786694;80;21766;-75
2022/03/01 08:43:23;;;;;;;11.97;7.22;;;;;;;2.98;73.97;101726.45;1786906;80;20919;-74
2022/03/01 08:45:51;;;;;;;10.70;7.55;;;;;;;3.03;73.96;101724.23;1786556;80;20879;-76
2022/03/01 08:48:18;;;;;;;11.75;7.30;;;;;;;3.04;73.60;101718.61;1787125;80;20872;-74
2022/03/01 08:50:45;;;;;;;14.43;8.95;;;;;;;2.98;73.64;101724.73;1786629;80;20983;-73
2022/03/01 08:53:11;;;;;;;11.97;8.43;;;;;;;2.97;73.69;101723.45;1786924;80;21467;-73
2022/03/01 08:55:38;;;;;;;14.73;8.28;;;;;;;2.97;73.76;101729.48;1786687;80;21399;-75
2022/03/01 08:58:05;;;;;;;12.03;7.70;;;;;;;3.00;73.63;101737.66;1786788;80;20950;-75
2022/03/01 09:00:32;;;;;;;12.55;7.92;;;;;;;2.94;73.77;101730.82;1786743;80;21518;-75
2022/03/01 09:02:58;;;;;;;11.70;8.00;;;;;;;2.93;73.98;101735.56;1786580;80;20884;-76
2022/03/01 09:05:25;;;;;;;11.22;8.15;;;;;;;2.94;74.12;101723.49;1786936;80;21102;-75
2022/03/01 09:07:52;;;;;;;9.45;6.72;;;;;;;2.97;74.12;101728.19;1786794;80;20963;-74
2022/03/01 09:10:22;;;;;;;11.20;7.78;;;;;;;3.00;74.07;101726.88;1786542;80;21388;-75
2022/03/01 09:12:52;;;;;;;9.28;6.42;;;;;;;2.99;73.92;101726.44;1786577;80;20841;-74
2022/03/01 09:15:20;;;;;;;12.55;8.38;;;;;;;3.04;73.89;101727.68;1786444;80;20891;-73
2022/03/01 09:17:47;;;;;;;11.57;8.33;;;;;;;3.08;73.95;101732.81;1786665;80;21466;-74
2022/03/01 09:20:14;;;;;;;11.65;8.95;;;;;;;3.15;73.63;101724.98;1786541;79;20919;-73
2022/03/01 09:22:41;;;;;;;11.03;8.35;;;;;;;3.13;73.40;101718.95;1786534;80;20926;-74
2022/03/01 09:25:08;;;;;;;11.90;9.50;;;;;;;3.13;73.30;101722.39;1786627;80;21390;-72
2022/03/01 09:27:34;;;;;;;14.18;8.50;;;;;;;3.09;73.31;101712.93;1786503;79;21511;-74
2022/03/01 09:30:04;;;;;;;13.90;9.63;;;;;;;3.06;73.38;101707.35;1786715;80;20947;-74
2022/03/01 09:32:32;;;;;;;13.85;9.48;;;;;;;3.08;73.48;101709.94;1786593;80;20927;-75
2022/03/01 09:34:58;;;;;;;12.95;9.20;;;;;;;3.11;73.29;101702.11;1786811;79;21021;-74
2022/03/01 09:37:25;;;;;;;15.35;9.40;;;;;;;3.15;73.38;101701.20;1786881;80;20959;-73
2022/03/01 09:39:52;;;;;;;13.18;10.45;;;;;;;3.19;73.17;101707.22;1786625;79;21394;-75
2022/03/01 09:42:18;;;;;;;12.63;8.25;;;;;;;3.21;72.93;101698.99;1786845;80;21522;-73
2022/03/01 09:44:45;;;;;;;13.28;9.40;;;;;;;3.21;73.10;101693.81;1786879;80;20919;-75
2022/03/01 09:47:12;;;;;;;18.37;10.38;;;;;;;3.22;73.05;101696.80;1786446;80;20867;-74
2022/03/01 09:49:38;;;;;;;16.10;11.03;;;;;;;3.19;72.99;101687.34;1786667;80;20959;-74
2022/03/01 09:52:05;;;;;;;16.07;11.25;;;;;;;3.26;72.89;101682.48;1786650;79;20871;-73
2022/03/01 09:54:33;;;;;;;16.25;10.88;;;;;;;3.32;72.87;101691.94;1786539;79;21157;-74
2022/03/01 09:57:00;;;;;;;16.70;10.80;;;;;;;3.35;72.71;101699.67;1786581;80;20900;-74
2022/03/01 09:59:26;;;;;;;15.30;10.03;;;;;;;3.33;72.58;101691.05;1786624;80;20947;-74
2022/03/01 10:01:53;;;;;;;26.27;16.82;;;;;;;3.35;72.58;101691.89;1786433;80;20998;-74
2022/03/01 10:04:20;;;;;;;14.38;9.40;;;;;;;3.36;72.60;101684.55;1786740;80;20911;-74
2022/03/01 10:06:48;;;;;;;11.97;9.13;;;;;;;3.40;72.60;101694.42;1786909;80;21499;-75
2022/03/01 10:09:21;;;;;;;13.28;10.25;;;;;;;3.40;72.56;101693.12;1786386;79;20959;-75
2022/03/01 10:11:48;;;;;;;14.50;9.63;;;;;;;3.40;72.38;101684.93;1786812;80;20919;-74
2022/03/01 10:14:15;;;;;;;12.82;9.93;;;;;;;3.42;72.45;101681.00;1786470;79;20972;-74
2022/03/01 10:16:45;;;;;;;16.85;10.50;;;;;;;3.42;72.45;101684.89;1786607;79;21009;-74
2022/03/01 10:19:17;;;;;;;16.87;10.80;;;;;;;3.44;72.56;101675.36;1786574;80;21552;-75
2022/03/01 10:21:48;;;;;;;13.85;10.00;;;;;;;3.46;72.25;101680.09;1786754;79;21013;-73
2022/03/01 10:24:19;;;;;;;17.67;11.53;;;;;;;3.44;72.25;101681.39;1786496;80;20971;-72
2022/03/01 10:26:47;;;;;;;15.25;10.55;;;;;;;3.45;72.10;101683.12;1786779;79;20971;-74
2022/03/01 10:29:14;;;;;;;14.45;10.60;;;;;;;3.46;72.15;101683.98;1786734;80;20974;-74
2022/03/01 10:31:49;;;;;;;13.88;8.75;;;;;;;3.46;72.21;101688.72;1786929;80;21087;-75
2022/03/01 10:34:12;;;;;;;18.25;9.65;;;;;;;3.50;72.09;101683.06;1785581;80;20875;-75
2022/03/01 10:36:48;;;;;;;14.20;9.43;;;;;;;3.50;71.98;101680.02;1786475;80;21301;-72
2022/03/01 10:39:17;;;;;;;14.03;9.68;;;;;;;3.51;72.07;101684.34;1786589;80;20888;-73
2022/03/01 10:41:48;;;;;;;16.52;10.38;;;;;;;3.56;72.22;101684.70;1786768;79;21001;-75
2022/03/01 10:44:20;;;;;;;15.70;10.15;;;;;;;3.59;72.05;101676.45;1786502;80;21128;-75
2022/03/01 10:46:55;;;;;;;15.03;9.65;;;;;;;3.63;71.86;101687.20;1786743;79;20920;-74
2022/03/01 10:49:24;;;;;;;15.40;9.98;;;;;;;3.64;71.79;101676.38;1786140;80;20927;-75
2022/03/01 10:51:57;;;;;;;14.33;9.70;;;;;;;3.63;71.78;101679.42;1780687;80;20844;-73
2022/03/01 10:54:34;;;;;;;14.87;10.82;;;;;;;3.64;71.90;101683.72;1780735;80;20928;-75
2022/03/01 10:57:04;;;;;;;15.63;10.43;;;;;;;3.68;71.76;101680.20;1743701;82;21095;-74
2022/03/01 10:59:33;;;;;;;14.55;9.80;;;;;;;3.69;71.73;101681.05;1717349;83;21078;-74
2022/03/01 11:02:02;;;;;;;14.18;9.18;;;;;;;3.70;71.69;101675.85;1780687;79;20911;-76
2022/03/01 11:04:29;;;;;;;13.22;9.10;;;;;;;3.69;71.79;101674.16;1780708;80;20891;-75
2022/03/01 11:07:02;;;;;;;14.78;9.13;;;;;;;3.72;71.91;101669.35;1780695;80;21382;-76
2022/03/01 11:09:31;;;;;;;16.05;11.38;;;;;;;3.77;71.74;101670.58;1780968;79;21328;-74
2022/03/01 11:11:59;;;;;;;14.13;10.93;;;;;;;3.80;71.68;101669.23;1780682;80;20911;-73
2022/03/01 11:14:33;;;;;;;14.83;10.32;;;;;;;3.83;71.24;101671.80;1780840;80;20931;-76
2022/03/01 11:17:26;;;;;;;15.53;11.10;;;;;;;3.76;71.07;101668.44;1776452;80;20896;-75
2022/03/01 11:20:26;;;;;;;13.68;10.32;;;;;;;3.71;71.23;101668.51;1754676;79;20939;-74